createdAt,value
2018-07-16T00:00:51.471Z,101541.11
2018-07-16T00:03:20.164Z,101546.78
2018-07-16T00:05:48.769Z,101542.30
2018-07-16T00:08:17.448Z,101547.17
2018-07-16T00:10:46.136Z,101548.12
2018-07-16T00:13:14.790Z,101550.81
2018-07-16T00:15:43.440Z,101549.03
2018-07-16T00:18:12.125Z,101558.06
2018-07-16T00:20:40.963Z,101558.02
2018-07-16T00:23:09.599Z,101552.44
2018-07-16T00:25:38.190Z,101560.56
2018-07-16T00:28:06.979Z,101562.66
2018-07-16T00:30:35.752Z,101564.98
2018-07-16T00:33:04.360Z,101568.52
2018-07-16T00:35:33.181Z,101567.31
2018-07-16T00:38:01.744Z,101566.19
2018-07-16T00:40:30.353Z,101564.44
2018-07-16T00:42:59.036Z,101562.03
2018-07-16T00:45:27.736Z,101562.83
2018-07-16T00:47:56.459Z,101562.91
2018-07-16T00:50:25.149Z,101565.98
2018-07-16T00:52:53.781Z,101565.44
2018-07-16T00:55:22.387Z,101577.48
2018-07-16T00:57:51.122Z,101570.30
2018-07-16T01:00:19.829Z,101569.72
2018-07-16T01:02:48.390Z,101576.41
2018-07-16T01:05:17.069Z,101581.09
2018-07-16T01:07:45.762Z,101583.35
2018-07-16T01:10:14.452Z,101586.88
2018-07-16T01:12:43.180Z,101585.17
2018-07-16T01:15:11.821Z,101587.50
2018-07-16T01:17:40.487Z,101595.53
2018-07-16T01:20:09.162Z,101587.44
2018-07-16T01:22:37.809Z,101590.02
2018-07-16T01:25:06.485Z,101584.47
2018-07-16T01:27:35.177Z,101589.23
2018-07-16T01:30:03.921Z,101593.87
2018-07-16T01:32:33.005Z,101596.22
2018-07-16T01:35:01.677Z,101600.36
2018-07-16T01:37:30.630Z,101596.13
2018-07-16T01:39:59.425Z,101607.45
2018-07-16T01:42:28.118Z,101602.94
2018-07-16T01:44:56.812Z,101602.58
2018-07-16T01:47:25.439Z,101611.62
2018-07-16T01:49:54.174Z,101609.08
2018-07-16T01:52:22.946Z,101608.05
2018-07-16T01:54:51.701Z,101605.94
2018-07-16T01:57:20.380Z,101461.98
2018-07-16T01:59:49.052Z,101604.30
2018-07-16T02:02:17.770Z,101607.47
2018-07-16T02:04:46.471Z,101599.19
2018-07-16T02:07:15.185Z,101605.64
2018-07-16T02:09:43.850Z,101605.08
2018-07-16T02:12:12.517Z,101612.62
2018-07-16T02:14:41.154Z,101611.77
2018-07-16T02:17:09.739Z,101609.16
2018-07-16T02:19:38.392Z,101614.67
2018-07-16T02:22:07.154Z,101613.67
2018-07-16T02:24:36.033Z,101612.20
2018-07-16T02:27:04.654Z,101613.67
2018-07-16T02:29:33.330Z,101615.30
2018-07-16T02:32:02.160Z,101617.61
2018-07-16T02:34:30.849Z,101622.41
2018-07-16T02:36:59.423Z,101619.97
2018-07-16T02:39:28.149Z,101628.00
2018-07-16T02:41:56.832Z,101625.94
2018-07-16T02:44:25.453Z,101624.60
2018-07-16T02:46:54.084Z,101628.48
2018-07-16T02:49:22.713Z,101624.11
2018-07-16T02:51:51.415Z,101629.05
2018-07-16T02:54:20.138Z,101625.75
2018-07-16T02:56:48.830Z,101627.58
2018-07-16T02:59:17.617Z,101626.47
2018-07-16T03:01:46.382Z,101635.11
2018-07-16T03:04:15.156Z,101634.63
2018-07-16T03:06:43.877Z,101633.22
2018-07-16T03:09:12.556Z,101642.06
2018-07-16T03:11:41.209Z,101641.55
2018-07-16T03:14:09.842Z,101641.84
2018-07-16T03:16:38.724Z,101643.87
2018-07-16T03:19:07.357Z,101648.84
2018-07-16T03:21:36.038Z,101651.94
2018-07-16T03:24:04.680Z,101650.05
2018-07-16T03:26:33.414Z,101653.19
2018-07-16T03:29:02.046Z,101657.88
2018-07-16T03:31:30.832Z,101655.92
2018-07-16T03:33:59.484Z,101654.81
2018-07-16T03:36:28.136Z,101648.61
2018-07-16T03:38:57.109Z,101650.50
2018-07-16T03:41:25.722Z,101654.03
2018-07-16T03:43:54.470Z,101653.19
2018-07-16T03:46:23.179Z,101653.51
2018-07-16T03:48:51.829Z,101650.05
2018-07-16T03:51:20.541Z,101652.46
2018-07-16T03:53:49.197Z,101648.97
2018-07-16T03:56:17.808Z,101646.39
2018-07-16T03:58:46.548Z,101647.53
2018-07-16T04:01:15.283Z,101648.53
2018-07-16T04:03:43.986Z,101647.34
2018-07-16T04:06:12.605Z,101639.95
2018-07-16T04:08:41.324Z,101643.76
2018-07-16T04:11:10.049Z,101645.24
2018-07-16T04:13:38.761Z,101631.98
2018-07-16T04:16:07.386Z,101637.62
2018-07-16T04:18:36.413Z,101645.80
2018-07-16T04:21:05.100Z,101639.55
2018-07-16T04:23:33.644Z,101639.19
2018-07-16T04:26:02.370Z,101638.72
2018-07-16T04:28:31.022Z,101631.16
2018-07-16T04:30:59.740Z,101634.02
2018-07-16T04:33:28.426Z,101640.63
2018-07-16T04:35:57.110Z,101643.86
2018-07-16T04:38:25.801Z,101638.75
2018-07-16T04:40:54.539Z,101636.05
2018-07-16T04:43:23.175Z,101630.47
2018-07-16T04:45:51.886Z,101635.08
2018-07-16T04:48:20.604Z,101634.48
2018-07-16T04:50:49.238Z,101638.12
2018-07-16T04:53:18.006Z,101638.89
2018-07-16T04:55:46.749Z,101639.56
2018-07-16T04:58:15.410Z,101639.63
2018-07-16T05:00:44.025Z,101637.37
2018-07-16T05:03:12.831Z,101640.41
2018-07-16T05:05:41.571Z,101644.33
2018-07-16T05:08:10.164Z,101642.59
2018-07-16T05:10:38.813Z,101649.29
2018-07-16T05:13:07.632Z,101649.36
2018-07-16T05:15:36.256Z,101645.08
2018-07-16T05:18:05.140Z,101642.84
2018-07-16T05:20:33.855Z,101638.78
2018-07-16T05:23:02.581Z,101642.75
2018-07-16T05:25:31.402Z,101647.23
2018-07-16T05:28:00.133Z,101650.37
2018-07-16T05:30:28.767Z,101655.28
2018-07-16T05:32:57.398Z,101651.24
2018-07-16T05:35:26.109Z,101650.81
2018-07-16T05:38:01.299Z,101645.27
2018-07-16T05:40:30.102Z,101646.96
2018-07-16T05:42:58.756Z,101651.05
2018-07-16T05:45:27.433Z,101654.57
2018-07-16T05:47:56.208Z,101650.27
2018-07-16T05:50:24.880Z,101650.18
2018-07-16T05:52:53.503Z,101648.48
2018-07-16T05:55:22.284Z,101651.45
2018-07-16T05:57:50.900Z,101652.27
2018-07-16T06:00:19.537Z,101654.84
2018-07-16T06:02:48.190Z,101646.48
2018-07-16T06:05:16.940Z,101653.08
2018-07-16T06:07:45.789Z,101650.06
2018-07-16T06:10:14.412Z,101654.16
2018-07-16T06:12:43.091Z,101648.78
2018-07-16T06:15:11.822Z,101654.52
2018-07-16T06:17:40.536Z,101653.53
2018-07-16T06:20:10.708Z,101646.45
2018-07-16T06:22:39.630Z,101647.45
2018-07-16T06:25:08.787Z,101651.52
2018-07-16T06:27:37.546Z,101653.02
2018-07-16T06:30:06.370Z,101650.16
2018-07-16T06:32:35.355Z,101653.35
2018-07-16T06:35:04.211Z,101654.38
2018-07-16T06:37:32.940Z,101652.70
2018-07-16T06:40:01.611Z,101655.20
2018-07-16T06:42:30.251Z,101656.76
2018-07-16T06:44:58.932Z,101659.25
2018-07-16T06:47:27.653Z,101659.78
2018-07-16T06:49:56.504Z,101646.26
2018-07-16T06:52:25.111Z,101647.64
2018-07-16T06:57:21.468Z,101656.05
2018-07-16T06:59:50.131Z,101655.05
2018-07-16T07:02:18.861Z,101647.44
2018-07-16T07:04:47.549Z,101649.59
2018-07-16T07:07:16.202Z,101644.99
2018-07-16T07:09:44.836Z,101644.46
2018-07-16T07:12:13.647Z,101642.80
2018-07-16T07:14:42.379Z,101642.44
2018-07-16T07:17:11.016Z,101644.52
2018-07-16T07:19:39.695Z,101637.40
2018-07-16T07:22:08.331Z,101630.42
2018-07-16T07:24:37.172Z,101632.67
2018-07-16T07:27:05.952Z,101630.25
2018-07-16T07:29:34.562Z,101621.94
2018-07-16T07:32:03.310Z,101624.34
2018-07-16T07:34:31.959Z,101620.37
2018-07-16T07:37:00.678Z,101622.12
2018-07-16T07:39:29.248Z,101627.56
2018-07-16T07:41:57.916Z,101626.13
2018-07-16T07:44:26.527Z,101629.26
2018-07-16T07:46:55.406Z,101631.40
2018-07-16T07:49:24.042Z,101634.31
2018-07-16T07:51:52.692Z,101631.46
2018-07-16T07:54:21.644Z,101630.62
2018-07-16T07:56:50.091Z,101625.41
2018-07-16T07:59:18.777Z,101638.29
2018-07-16T08:01:47.555Z,101632.81
2018-07-16T08:04:16.276Z,101634.46
2018-07-16T08:06:49.828Z,101631.67
2018-07-16T08:09:18.458Z,101636.21
2018-07-16T08:11:47.145Z,101628.53
2018-07-16T08:14:15.859Z,101633.52
2018-07-16T08:16:44.566Z,101635.28
2018-07-16T08:19:13.180Z,101643.44
2018-07-16T08:21:41.952Z,101641.22
2018-07-16T08:24:10.674Z,101645.63
2018-07-16T08:26:39.838Z,101641.55
2018-07-16T08:29:08.478Z,101638.22
2018-07-16T08:31:37.278Z,101639.75
2018-07-16T08:34:06.220Z,101642.99
2018-07-16T08:36:35.040Z,101640.73
2018-07-16T08:39:04.941Z,101635.29
2018-07-16T08:41:33.541Z,101631.43
2018-07-16T08:44:02.436Z,101632.40
2018-07-16T08:46:31.214Z,101629.58
2018-07-16T08:49:00.286Z,101632.14
2018-07-16T08:51:29.037Z,101628.62
2018-07-16T08:53:57.866Z,101626.94
2018-07-16T08:56:26.625Z,101624.45
2018-07-16T08:58:55.530Z,101618.93
2018-07-16T09:01:24.239Z,101628.69
2018-07-16T09:03:53.166Z,101621.48
2018-07-16T09:06:21.847Z,101623.09
2018-07-16T09:08:50.525Z,101625.94
2018-07-16T09:11:19.321Z,101618.38
2018-07-16T09:13:47.964Z,101627.23
2018-07-16T09:16:16.544Z,101622.45
2018-07-16T09:18:45.315Z,101630.86
2018-07-16T09:21:13.948Z,101615.16
2018-07-16T09:23:42.565Z,101611.91
2018-07-16T09:26:11.386Z,101617.09
2018-07-16T09:28:40.443Z,101612.53
2018-07-16T09:31:09.424Z,101619.25
2018-07-16T09:33:38.237Z,101619.30
2018-07-16T09:36:06.946Z,101618.33
2018-07-16T09:38:35.739Z,101622.19
2018-07-16T09:41:04.528Z,101609.22
2018-07-16T09:43:33.212Z,101614.41
2018-07-16T09:46:01.907Z,101614.17
2018-07-16T09:48:30.528Z,101605.38
2018-07-16T09:50:59.200Z,101602.52
2018-07-16T09:53:27.870Z,101604.90
2018-07-16T09:55:56.528Z,101612.11
2018-07-16T09:58:25.272Z,101612.63
2018-07-16T10:00:59.161Z,101609.52
2018-07-16T10:03:27.911Z,101613.67
2018-07-16T10:05:56.622Z,101610.95
2018-07-16T10:08:25.430Z,101614.25
2018-07-16T10:10:54.141Z,101606.55
2018-07-16T10:13:22.926Z,101615.38
2018-07-16T10:15:51.544Z,101611.09
2018-07-16T10:18:20.369Z,101607.50
2018-07-16T10:20:48.981Z,101612.84
2018-07-16T10:23:17.617Z,101615.47
2018-07-16T10:25:46.406Z,101611.91
2018-07-16T10:28:15.071Z,101611.83
2018-07-16T10:30:43.786Z,101612.64
2018-07-16T10:33:12.576Z,101608.75
2018-07-16T10:35:41.230Z,101598.30
2018-07-16T10:38:10.026Z,101600.50
2018-07-16T10:40:38.975Z,101606.37
2018-07-16T10:43:07.670Z,101601.54
2018-07-16T10:45:36.348Z,101602.09
2018-07-16T10:48:06.223Z,101597.26
2018-07-16T10:50:34.998Z,101598.93
2018-07-16T10:53:03.617Z,101598.26
2018-07-16T10:56:02.918Z,101597.16
2018-07-16T10:58:31.548Z,101594.02
2018-07-16T11:01:00.218Z,101596.08
2018-07-16T11:03:28.956Z,101589.87
2018-07-16T11:06:09.410Z,101584.01
2018-07-16T11:08:38.081Z,101575.56
2018-07-16T11:11:06.963Z,101580.27
2018-07-16T11:13:35.541Z,101579.60
2018-07-16T11:16:04.175Z,101576.65
2018-07-16T11:18:32.860Z,101579.00
2018-07-16T11:21:01.589Z,101575.84
2018-07-16T11:23:30.227Z,101575.00
2018-07-16T11:25:59.014Z,101568.11
2018-07-16T11:28:27.640Z,101567.33
2018-07-16T11:30:56.270Z,101567.66
2018-07-16T11:33:25.184Z,101568.22
2018-07-16T11:35:53.940Z,101563.06
2018-07-16T11:38:22.615Z,101567.97
2018-07-16T11:40:51.408Z,101557.64
2018-07-16T11:43:19.995Z,101563.34
2018-07-16T11:45:48.748Z,101567.05
2018-07-16T11:48:17.628Z,101562.73
2018-07-16T11:50:46.338Z,101565.95
2018-07-16T11:53:15.001Z,101566.94
2018-07-16T11:55:43.574Z,101562.02
2018-07-16T11:58:12.351Z,101563.52
2018-07-16T12:00:41.152Z,101566.30
2018-07-16T12:03:09.957Z,101566.49
2018-07-16T12:05:38.525Z,101565.20
2018-07-16T12:08:07.318Z,101562.84
2018-07-16T12:10:36.547Z,101569.11
2018-07-16T12:13:05.207Z,101567.52
2018-07-16T12:15:33.854Z,101561.45
2018-07-16T12:18:02.699Z,101558.61
2018-07-16T12:20:31.421Z,101566.89
2018-07-16T12:22:59.963Z,101567.98
2018-07-16T12:25:28.715Z,101569.13
2018-07-16T12:27:57.594Z,101570.20
2018-07-16T12:30:26.296Z,101573.37
2018-07-16T12:32:55.255Z,101569.91
2018-07-16T12:35:24.124Z,101562.14
2018-07-16T12:37:52.724Z,101567.14
2018-07-16T12:40:21.412Z,101569.31
2018-07-16T12:42:50.120Z,101570.84
2018-07-16T12:45:18.823Z,101576.88
2018-07-16T12:47:47.501Z,101567.23
2018-07-16T12:50:16.345Z,101566.70
2018-07-16T12:52:45.040Z,101565.91
2018-07-16T12:55:13.696Z,101554.42
2018-07-16T12:57:42.477Z,101562.61
2018-07-16T13:00:11.202Z,101557.47
2018-07-16T13:02:39.861Z,101550.97
2018-07-16T13:05:08.737Z,101553.63
2018-07-16T13:07:37.421Z,101557.18
2018-07-16T13:10:06.269Z,101554.51
2018-07-16T13:12:35.095Z,101551.84
2018-07-16T13:15:03.858Z,101557.34
2018-07-16T13:17:32.545Z,101548.25
2018-07-16T13:20:01.219Z,101546.52
2018-07-16T13:22:29.812Z,101548.06
2018-07-16T13:24:58.432Z,101538.94
2018-07-16T13:27:27.015Z,101544.89
2018-07-16T13:29:55.797Z,101547.44
2018-07-16T13:32:24.561Z,101540.70
2018-07-16T13:34:53.121Z,101546.86
2018-07-16T13:37:21.983Z,101547.66
2018-07-16T13:39:50.630Z,101549.27
2018-07-16T13:42:19.357Z,101542.41
2018-07-16T13:44:48.036Z,101547.70
2018-07-16T13:47:16.721Z,101548.22
2018-07-16T13:49:45.493Z,101540.17
2018-07-16T13:52:14.098Z,101537.48
2018-07-16T13:54:43.043Z,101527.60
2018-07-16T13:57:11.658Z,101527.60
2018-07-16T13:59:40.295Z,101532.80
2018-07-16T14:02:09.173Z,101544.77
2018-07-16T14:04:37.801Z,101536.02
2018-07-16T14:07:06.491Z,101529.60
2018-07-16T14:09:35.205Z,101534.87
2018-07-16T14:12:03.911Z,101528.52
2018-07-16T14:14:32.598Z,101531.77
2018-07-16T14:17:01.327Z,101533.28
2018-07-16T14:19:30.018Z,101536.19
2018-07-16T14:21:58.706Z,101535.42
2018-07-16T14:24:27.471Z,101547.22
2018-07-16T14:26:56.245Z,101549.33
2018-07-16T14:29:24.845Z,101537.52
2018-07-16T14:31:53.437Z,101544.45
2018-07-16T14:34:22.070Z,101540.02
2018-07-16T14:36:50.809Z,101534.89
2018-07-16T14:39:19.503Z,101539.08
2018-07-16T14:41:48.129Z,101523.55
2018-07-16T14:44:16.806Z,101537.41
2018-07-16T14:46:45.753Z,101540.03
2018-07-16T14:49:14.673Z,101536.86
2018-07-16T14:51:43.353Z,101538.16
2018-07-16T14:54:12.186Z,101533.20
2018-07-16T14:56:41.111Z,101534.34
2018-07-16T14:59:09.826Z,101537.55
2018-07-16T15:01:38.557Z,101532.09
2018-07-16T15:04:07.640Z,101529.36
2018-07-16T15:06:36.448Z,101528.09
2018-07-16T15:09:07.311Z,101531.20
2018-07-16T15:11:35.924Z,101524.48
2018-07-16T15:14:04.675Z,101526.42
2018-07-16T15:16:33.366Z,101524.92
2018-07-16T15:19:02.049Z,101524.38
2018-07-16T15:21:30.950Z,101533.82
2018-07-16T15:23:59.690Z,101531.77
2018-07-16T15:26:28.350Z,101525.17
2018-07-16T15:28:57.368Z,101527.80
2018-07-16T15:31:25.960Z,101525.75
2018-07-16T15:33:54.585Z,101532.26
2018-07-16T15:36:23.510Z,101536.48
2018-07-16T15:38:52.231Z,101537.84
2018-07-16T15:41:20.917Z,101540.28
2018-07-16T15:43:49.662Z,101533.05
2018-07-16T15:46:18.507Z,101540.67
2018-07-16T15:48:47.207Z,101540.45
2018-07-16T15:51:15.760Z,101541.58
2018-07-16T15:53:44.415Z,101549.30
2018-07-16T15:56:13.206Z,101544.73
2018-07-16T15:58:42.157Z,101547.17
2018-07-16T16:01:10.875Z,101548.52
2018-07-16T16:03:39.590Z,101547.78
2018-07-16T16:06:08.564Z,101547.62
2018-07-16T16:08:37.344Z,101550.25
2018-07-16T16:11:06.503Z,101550.91
2018-07-16T16:13:35.230Z,101546.50
2018-07-16T16:16:04.014Z,101549.05
2018-07-16T16:18:32.605Z,101547.99
2018-07-16T16:21:01.260Z,101557.80
2018-07-16T16:23:29.955Z,101547.92
2018-07-16T16:25:58.672Z,101550.74
2018-07-16T16:28:27.612Z,101549.73
2018-07-16T16:30:56.243Z,101546.80
2018-07-16T16:33:25.144Z,101549.70
2018-07-16T16:35:53.795Z,101549.03
2018-07-16T16:38:22.701Z,101543.91
2018-07-16T16:40:51.367Z,101551.97
2018-07-16T16:43:20.126Z,101548.37
2018-07-16T16:45:48.904Z,101554.43
2018-07-16T16:48:17.558Z,101555.03
2018-07-16T16:50:46.499Z,101558.48
2018-07-16T16:53:15.102Z,101561.34
2018-07-16T16:55:43.840Z,101556.56
2018-07-16T16:58:12.533Z,101563.59
2018-07-16T17:00:41.180Z,101557.55
2018-07-16T17:03:09.795Z,101561.80
2018-07-16T17:05:38.684Z,101567.32
2018-07-16T17:08:07.313Z,101560.31
2018-07-16T17:10:36.026Z,101564.29
2018-07-16T17:13:04.776Z,101564.84
2018-07-16T17:15:33.432Z,101570.09
2018-07-16T17:18:02.095Z,101563.81
2018-07-16T17:20:30.731Z,101568.59
2018-07-16T17:22:59.413Z,101564.05
2018-07-16T17:25:28.543Z,101562.28
2018-07-16T17:27:57.165Z,101562.13
2018-07-16T17:30:25.877Z,101571.30
2018-07-16T17:32:54.516Z,101576.25
2018-07-16T17:35:23.373Z,101578.19
2018-07-16T17:37:52.001Z,101572.66
2018-07-16T17:40:20.598Z,101578.98
2018-07-16T17:42:49.349Z,101574.65
2018-07-16T17:45:17.986Z,101573.03
2018-07-16T17:47:46.651Z,101568.64
2018-07-16T17:50:15.388Z,101571.45
2018-07-16T17:52:44.201Z,101575.09
2018-07-16T17:55:12.834Z,101577.99
2018-07-16T17:57:41.508Z,101579.42
2018-07-16T18:00:10.435Z,101578.58
2018-07-16T18:02:39.146Z,101578.92
2018-07-16T18:05:07.779Z,101582.70
2018-07-16T18:07:36.586Z,101586.52
2018-07-16T18:10:05.697Z,101578.31
2018-07-16T18:12:34.295Z,101582.75
2018-07-16T18:15:03.023Z,101578.25
2018-07-16T18:17:31.750Z,101577.33
2018-07-16T18:20:00.411Z,101581.33
2018-07-16T18:22:29.072Z,101587.92
2018-07-16T18:24:57.722Z,101584.73
2018-07-16T18:27:26.484Z,101590.05
2018-07-16T18:29:55.156Z,101589.13
2018-07-16T18:32:23.983Z,101592.35
2018-07-16T18:34:52.604Z,101587.69
2018-07-16T18:37:21.282Z,101589.56
2018-07-16T18:39:49.999Z,101586.66
2018-07-16T18:42:18.979Z,101588.45
2018-07-16T18:44:48.072Z,101593.31
2018-07-16T18:47:16.828Z,101590.92
2018-07-16T18:49:45.501Z,101588.06
2018-07-16T18:52:14.170Z,101590.83
2018-07-16T18:54:42.947Z,101592.22
2018-07-16T18:57:11.563Z,101593.63
2018-07-16T18:59:40.229Z,101596.84
2018-07-16T19:02:08.884Z,101594.80
2018-07-16T19:04:37.530Z,101601.82
2018-07-16T19:07:06.308Z,101595.95
2018-07-16T19:09:35.410Z,101597.30
2018-07-16T19:12:04.149Z,101596.81
2018-07-16T19:14:32.893Z,101595.85
2018-07-16T19:17:02.111Z,101598.89
2018-07-16T19:19:31.183Z,101597.38
2018-07-16T19:22:00.023Z,101596.38
2018-07-16T19:24:28.932Z,101605.34
2018-07-16T19:26:57.529Z,101607.92
2018-07-16T19:29:27.234Z,101611.48
2018-07-16T19:31:56.237Z,101612.34
2018-07-16T19:34:24.917Z,101613.23
2018-07-16T19:36:53.531Z,101612.56
2018-07-16T19:39:22.317Z,101611.95
2018-07-16T19:41:51.053Z,101617.55
2018-07-16T19:44:19.654Z,101616.94
2018-07-16T19:46:48.481Z,101616.48
2018-07-16T19:49:17.163Z,101614.66
2018-07-16T19:51:45.964Z,101612.55
2018-07-16T19:54:14.699Z,101614.45
2018-07-16T19:56:43.360Z,101621.09
2018-07-16T19:59:11.958Z,101615.23
2018-07-16T20:01:40.789Z,101623.92
2018-07-16T20:04:09.565Z,101618.73
2018-07-16T20:06:38.221Z,101614.55
2018-07-16T20:09:07.412Z,101625.19
2018-07-16T20:11:36.286Z,101629.41
2018-07-16T20:14:04.922Z,101620.18
2018-07-16T20:16:40.485Z,101625.24
2018-07-16T20:19:09.296Z,101622.09
2018-07-16T20:21:37.990Z,101622.25
2018-07-16T20:24:06.817Z,101623.97
2018-07-16T20:26:35.510Z,101633.77
2018-07-16T20:29:04.321Z,101634.47
2018-07-16T20:31:33.116Z,101634.14
2018-07-16T20:34:01.777Z,101632.45
2018-07-16T20:36:30.696Z,101635.51
2018-07-16T20:38:59.336Z,101637.52
2018-07-16T20:41:27.916Z,101646.44
2018-07-16T20:43:56.564Z,101648.66
2018-07-16T20:46:25.258Z,101651.84
2018-07-16T20:48:54.241Z,101647.81
2018-07-16T20:51:22.888Z,101648.80
2018-07-16T20:53:52.000Z,101651.69
2018-07-16T20:56:21.722Z,101655.72
2018-07-16T20:58:50.451Z,101655.22
2018-07-16T21:01:19.343Z,101656.56
2018-07-16T21:03:47.947Z,101661.25
2018-07-16T21:06:16.566Z,101664.09
2018-07-16T21:08:45.322Z,101664.89
2018-07-16T21:11:14.213Z,101662.33
2018-07-16T21:13:42.771Z,101670.04
2018-07-16T21:16:11.482Z,101670.20
2018-07-16T21:18:40.162Z,101664.77
2018-07-16T21:21:08.928Z,101665.12
2018-07-16T21:23:37.739Z,101668.62
2018-07-16T21:26:06.532Z,101672.47
2018-07-16T21:28:35.239Z,101675.77
2018-07-16T21:31:03.971Z,101679.45
2018-07-16T21:33:32.692Z,101681.30
2018-07-16T21:36:01.378Z,101681.70
2018-07-16T21:38:30.034Z,101682.50
2018-07-16T21:40:58.669Z,101687.23
2018-07-16T21:43:27.381Z,101682.95
2018-07-16T21:45:56.080Z,101688.33
2018-07-16T21:48:24.798Z,101682.09
2018-07-16T21:50:53.438Z,101684.06
2018-07-16T21:53:22.128Z,101688.69
2018-07-16T21:55:50.952Z,101691.03
2018-07-16T21:58:19.621Z,101692.36
2018-07-16T22:00:48.894Z,101692.81
2018-07-16T22:03:17.643Z,101693.14
2018-07-16T22:05:46.409Z,101691.89
2018-07-16T22:08:15.015Z,101697.95
2018-07-16T22:10:43.690Z,101691.37
2018-07-16T22:13:12.370Z,101690.67
2018-07-16T22:15:41.095Z,101699.88
2018-07-16T22:18:09.807Z,101703.75
2018-07-16T22:20:38.457Z,101700.25
2018-07-16T22:23:07.278Z,101710.65
2018-07-16T22:25:35.925Z,101714.45
2018-07-16T22:28:04.578Z,101714.05
2018-07-16T22:30:33.193Z,101721.32
2018-07-16T22:33:01.846Z,101723.47
2018-07-16T22:35:30.579Z,101726.86
2018-07-16T22:37:59.326Z,101731.39
2018-07-16T22:40:27.969Z,101729.66
2018-07-16T22:42:56.683Z,101719.59
2018-07-16T22:45:25.441Z,101735.52
2018-07-16T22:47:54.361Z,101740.72
2018-07-16T22:50:23.122Z,101733.26
2018-07-16T22:52:51.957Z,101736.51
2018-07-16T22:55:20.613Z,101742.11
2018-07-16T22:57:49.185Z,101741.91
2018-07-16T23:00:17.895Z,101741.95
2018-07-16T23:02:46.486Z,101748.35
2018-07-16T23:05:15.225Z,101738.77
2018-07-16T23:07:43.991Z,101745.19
2018-07-16T23:10:12.813Z,101743.27
2018-07-16T23:12:41.552Z,101735.77
2018-07-16T23:15:10.328Z,101742.87
2018-07-16T23:17:39.010Z,101740.73
2018-07-16T23:20:07.672Z,101745.11
2018-07-16T23:22:48.404Z,101750.56
2018-07-16T23:25:17.085Z,101744.93
2018-07-16T23:27:45.806Z,101742.03
2018-07-16T23:30:14.394Z,101742.82
2018-07-16T23:32:43.078Z,101740.77
2018-07-16T23:35:11.773Z,101743.58
2018-07-16T23:37:40.547Z,101744.56
2018-07-16T23:40:09.306Z,101740.55
2018-07-16T23:42:37.902Z,101742.68
2018-07-16T23:45:06.580Z,101740.54
2018-07-16T23:47:35.365Z,101745.95
2018-07-16T23:50:04.123Z,101744.56
2018-07-16T23:52:32.797Z,101747.38
2018-07-16T23:55:01.330Z,101743.44
2018-07-16T23:57:30.271Z,101747.86
2018-07-16T23:59:59.021Z,101743.27
